createdAt,value
2023-04-27T00:01:15.567Z,5.45
2023-04-27T00:03:42.822Z,5.50
2023-04-27T00:06:09.931Z,5.51
2023-04-27T00:08:36.917Z,5.59
2023-04-27T00:11:04.076Z,5.64
2023-04-27T00:13:30.903Z,5.61
2023-04-27T00:15:57.757Z,5.71
2023-04-27T00:18:24.554Z,5.74
2023-04-27T00:20:51.526Z,5.82
2023-04-27T00:23:18.316Z,5.84
2023-04-27T00:25:45.082Z,5.91
2023-04-27T00:28:11.831Z,5.99
2023-04-27T00:30:38.625Z,6.07
2023-04-27T00:33:06.034Z,6.19
2023-04-27T00:35:33.671Z,6.26
2023-04-27T00:38:00.499Z,6.22
2023-04-27T00:40:27.310Z,6.27
2023-04-27T00:42:54.098Z,6.19
2023-04-27T00:45:21.195Z,6.18
2023-04-27T00:47:48.151Z,6.17
2023-04-27T00:50:16.385Z,6.16
2023-04-27T00:52:44.282Z,6.12
2023-04-27T00:55:11.799Z,6.08
2023-04-27T00:57:40.289Z,6.09
2023-04-27T01:00:07.770Z,6.02
2023-04-27T01:02:35.955Z,5.98
2023-04-27T01:05:03.642Z,5.98
2023-04-27T01:07:30.519Z,5.98
2023-04-27T01:09:58.247Z,5.96
2023-04-27T01:12:25.259Z,5.92
2023-04-27T01:14:52.139Z,5.90
2023-04-27T01:17:18.925Z,5.94
2023-04-27T01:19:46.069Z,5.97
2023-04-27T01:22:15.243Z,6.05
2023-04-27T01:24:42.086Z,6.08
2023-04-27T01:27:08.933Z,6.09
2023-04-27T01:29:37.215Z,6.11
2023-04-27T01:32:04.875Z,6.07
2023-04-27T01:34:31.945Z,6.05
2023-04-27T01:36:58.742Z,6.02
2023-04-27T01:39:25.808Z,5.95
2023-04-27T01:41:52.740Z,5.94
2023-04-27T01:44:21.175Z,5.90
2023-04-27T01:46:48.083Z,5.87
2023-04-27T01:49:15.377Z,5.84
2023-04-27T01:51:42.388Z,5.84
2023-04-27T01:54:09.107Z,5.72
2023-04-27T01:56:37.916Z,5.76
2023-04-27T01:59:04.670Z,5.72
2023-04-27T02:01:34.305Z,5.74
2023-04-27T02:04:01.246Z,5.75
2023-04-27T02:06:29.216Z,5.76
2023-04-27T02:08:56.033Z,5.72
2023-04-27T02:11:23.063Z,5.67
2023-04-27T02:13:50.841Z,5.72
2023-04-27T02:16:17.651Z,5.73
2023-04-27T02:18:44.712Z,5.75
2023-04-27T02:21:11.783Z,5.77
2023-04-27T02:23:38.660Z,5.74
2023-04-27T02:26:06.082Z,5.81
2023-04-27T02:28:32.833Z,5.85
2023-04-27T02:31:00.471Z,5.91
2023-04-27T02:33:27.221Z,5.93
2023-04-27T02:35:53.933Z,5.99
2023-04-27T02:38:21.302Z,6.05
2023-04-27T02:40:53.633Z,6.03
2023-04-27T02:43:20.744Z,6.12
2023-04-27T02:45:47.502Z,6.15
2023-04-27T02:48:14.532Z,6.15
2023-04-27T02:50:42.452Z,6.19
2023-04-27T02:53:10.469Z,6.21
2023-04-27T02:55:37.668Z,6.18
2023-04-27T02:58:04.898Z,6.25
2023-04-27T03:00:31.718Z,6.27
2023-04-27T03:02:58.503Z,6.32
2023-04-27T03:05:28.345Z,6.35
2023-04-27T03:07:55.241Z,6.32
2023-04-27T03:10:22.024Z,6.39
2023-04-27T03:12:48.830Z,6.40
2023-04-27T03:15:15.972Z,6.43
2023-04-27T03:17:42.690Z,6.40
2023-04-27T03:20:10.306Z,6.36
2023-04-27T03:22:37.273Z,6.37
2023-04-27T03:25:04.447Z,6.32
2023-04-27T03:27:32.316Z,6.27
2023-04-27T03:29:59.197Z,6.27
2023-04-27T03:32:26.099Z,6.24
2023-04-27T03:34:54.084Z,6.23
2023-04-27T03:37:20.895Z,6.22
2023-04-27T03:39:47.688Z,6.21
2023-04-27T03:42:14.787Z,6.21
2023-04-27T03:44:41.549Z,6.19
2023-04-27T03:47:09.854Z,6.19
2023-04-27T03:49:38.786Z,6.22
2023-04-27T03:52:06.914Z,6.24
2023-04-27T03:54:34.922Z,6.27
2023-04-27T03:57:02.730Z,6.27
2023-04-27T03:59:30.330Z,6.29
2023-04-27T04:01:59.534Z,6.27
2023-04-27T04:04:28.003Z,6.38
2023-04-27T04:06:54.946Z,6.41
2023-04-27T04:09:23.952Z,6.36
2023-04-27T04:11:52.635Z,6.43
2023-04-27T04:14:19.811Z,6.45
2023-04-27T04:16:46.863Z,6.48
2023-04-27T04:19:13.907Z,6.50
2023-04-27T04:21:41.585Z,6.54
2023-04-27T04:24:10.280Z,6.58
2023-04-27T04:26:38.641Z,6.64
2023-04-27T04:29:05.774Z,6.61
2023-04-27T04:31:33.817Z,6.72
2023-04-27T04:34:01.985Z,6.76
2023-04-27T04:36:29.052Z,6.79
2023-04-27T04:38:57.396Z,6.81
2023-04-27T04:41:25.636Z,6.85
2023-04-27T04:43:52.423Z,6.85
2023-04-27T04:46:20.083Z,6.89
2023-04-27T04:48:47.034Z,6.88
2023-04-27T04:51:14.223Z,6.82
2023-04-27T04:53:41.030Z,6.83
2023-04-27T04:56:13.098Z,6.83
2023-04-27T04:58:40.182Z,6.85
2023-04-27T05:01:07.095Z,6.85
2023-04-27T05:03:34.242Z,6.86
2023-04-27T05:06:01.150Z,6.89
2023-04-27T05:08:27.945Z,6.91
2023-04-27T05:10:54.988Z,6.95
2023-04-27T05:13:22.102Z,6.99
2023-04-27T05:15:48.862Z,7.01
2023-04-27T05:18:15.787Z,7.08
2023-04-27T05:20:42.580Z,7.14
2023-04-27T05:23:09.459Z,7.21
2023-04-27T05:25:41.859Z,7.26
2023-04-27T05:28:09.937Z,7.38
2023-04-27T05:30:37.002Z,7.46
2023-04-27T05:33:04.599Z,7.64
2023-04-27T05:35:32.610Z,7.77
2023-04-27T05:37:59.758Z,7.82
2023-04-27T05:40:26.643Z,7.85
2023-04-27T05:42:53.875Z,7.95
2023-04-27T05:45:22.039Z,7.93
2023-04-27T05:47:49.017Z,7.93
2023-04-27T05:50:15.916Z,8.12
2023-04-27T05:52:42.718Z,8.26
2023-04-27T05:55:09.693Z,8.29
2023-04-27T05:57:36.404Z,8.42
2023-04-27T06:00:08.956Z,8.52
2023-04-27T06:02:39.244Z,8.52
2023-04-27T06:05:11.922Z,8.60
2023-04-27T06:07:43.858Z,8.66
2023-04-27T06:10:11.781Z,8.72
2023-04-27T06:12:38.907Z,8.79
2023-04-27T06:15:08.756Z,8.85
2023-04-27T06:17:39.655Z,8.88
2023-04-27T06:20:07.402Z,8.86
2023-04-27T06:22:34.334Z,8.99
2023-04-27T06:25:01.218Z,8.99
2023-04-27T06:27:27.946Z,9.00
2023-04-27T06:29:54.840Z,9.07
2023-04-27T06:32:21.801Z,9.09
2023-04-27T06:34:49.831Z,9.12
2023-04-27T06:37:17.387Z,9.17
2023-04-27T06:39:44.886Z,9.27
2023-04-27T06:42:11.866Z,9.28
2023-04-27T06:44:39.054Z,9.41
2023-04-27T06:47:05.941Z,9.45
2023-04-27T06:49:32.641Z,9.63
2023-04-27T06:52:02.931Z,9.82
2023-04-27T06:54:29.851Z,9.87
2023-04-27T06:56:56.521Z,10.04
2023-04-27T06:59:23.422Z,10.14
2023-04-27T07:01:50.195Z,10.23
2023-04-27T07:04:17.249Z,10.24
2023-04-27T07:06:44.032Z,10.35
2023-04-27T07:09:26.033Z,10.33
2023-04-27T07:11:54.388Z,10.34
2023-04-27T07:14:21.578Z,10.41
2023-04-27T07:16:48.484Z,10.41
2023-04-27T07:19:15.555Z,10.40
2023-04-27T07:21:42.635Z,10.35
2023-04-27T07:24:09.373Z,10.46
2023-04-27T07:26:37.049Z,10.50
2023-04-27T07:29:11.057Z,10.55
2023-04-27T07:31:41.738Z,10.56
2023-04-27T07:34:08.759Z,10.46
2023-04-27T07:36:35.488Z,10.49
2023-04-27T07:39:02.392Z,10.58
2023-04-27T07:41:29.127Z,10.59
2023-04-27T07:43:55.910Z,10.59
2023-04-27T07:46:22.735Z,10.55
2023-04-27T07:48:50.369Z,10.78
2023-04-27T07:51:17.681Z,10.85
2023-04-27T07:53:46.020Z,10.90
2023-04-27T07:56:14.425Z,11.09
2023-04-27T07:58:41.144Z,11.20
2023-04-27T08:01:07.830Z,11.39
2023-04-27T08:03:35.100Z,11.60
2023-04-27T08:06:02.410Z,11.82
2023-04-27T08:08:29.609Z,11.84
2023-04-27T08:10:56.471Z,11.74
2023-04-27T08:13:24.802Z,11.61
2023-04-27T08:15:58.352Z,11.66
2023-04-27T08:18:27.321Z,11.39
2023-04-27T08:20:54.622Z,11.41
2023-04-27T08:23:21.657Z,11.37
2023-04-27T08:25:48.685Z,11.35
2023-04-27T08:28:16.002Z,11.41
2023-04-27T08:30:43.023Z,11.49
2023-04-27T08:33:09.989Z,11.53
2023-04-27T08:35:36.849Z,11.66
2023-04-27T08:38:03.574Z,11.79
2023-04-27T08:40:30.758Z,11.78
2023-04-27T08:42:59.449Z,11.67
2023-04-27T08:45:27.705Z,11.78
2023-04-27T08:47:54.464Z,11.83
2023-04-27T08:50:21.632Z,12.02
2023-04-27T08:52:49.620Z,11.88
2023-04-27T08:55:16.827Z,11.90
2023-04-27T08:57:54.895Z,11.89
2023-04-27T09:00:21.968Z,12.02
2023-04-27T09:02:49.506Z,12.12
2023-04-27T09:05:21.894Z,12.11
2023-04-27T09:07:57.952Z,12.17
2023-04-27T09:10:25.010Z,12.18
2023-04-27T09:13:01.250Z,12.21
2023-04-27T09:15:31.914Z,12.14
2023-04-27T09:17:58.969Z,12.09
2023-04-27T09:20:27.344Z,12.19
2023-04-27T09:22:55.770Z,12.26
2023-04-27T09:25:32.734Z,12.43
2023-04-27T09:28:01.333Z,12.51
2023-04-27T09:30:29.439Z,12.37
2023-04-27T09:33:01.170Z,12.36
2023-04-27T09:35:31.609Z,12.34
2023-04-27T09:37:59.336Z,12.58
2023-04-27T09:40:29.719Z,12.53
2023-04-27T09:42:58.707Z,12.24
2023-04-27T09:45:25.885Z,12.00
2023-04-27T09:47:53.274Z,12.37
2023-04-27T09:50:21.782Z,12.46
2023-04-27T09:52:48.632Z,12.54
2023-04-27T09:55:28.564Z,12.61
2023-04-27T09:58:06.283Z,12.68
2023-04-27T10:00:48.919Z,12.65
2023-04-27T10:03:38.147Z,12.77
2023-04-27T10:06:17.207Z,12.84
2023-04-27T10:08:45.509Z,12.95
2023-04-27T10:11:17.207Z,12.97
2023-04-27T10:13:54.839Z,13.04
2023-04-27T10:16:22.859Z,13.04
2023-04-27T10:18:55.421Z,13.01
2023-04-27T10:21:22.715Z,12.74
2023-04-27T10:23:51.860Z,12.81
2023-04-27T10:26:24.025Z,12.85
2023-04-27T10:29:10.195Z,12.97
2023-04-27T10:31:44.096Z,13.02
2023-04-27T10:34:15.920Z,13.03
2023-04-27T10:36:42.740Z,13.04
2023-04-27T10:39:39.556Z,13.07
2023-04-27T10:42:11.584Z,13.19
2023-04-27T10:44:38.894Z,13.19
2023-04-27T10:47:22.223Z,13.33
2023-04-27T10:49:53.630Z,13.45
2023-04-27T10:52:20.649Z,13.59
2023-04-27T10:54:47.398Z,13.68
2023-04-27T10:57:14.457Z,13.91
2023-04-27T10:59:51.330Z,14.11
2023-04-27T11:02:25.964Z,13.96
2023-04-27T11:04:52.921Z,13.96
2023-04-27T11:07:28.157Z,13.97
2023-04-27T11:09:55.771Z,14.19
2023-04-27T11:12:22.595Z,14.22
2023-04-27T11:14:49.347Z,14.15
2023-04-27T11:17:16.188Z,14.42
2023-04-27T11:19:47.510Z,14.57
2023-04-27T11:22:18.108Z,14.87
2023-04-27T11:24:51.911Z,14.93
2023-04-27T11:27:22.110Z,14.88
2023-04-27T11:29:48.970Z,14.93
2023-04-27T11:32:23.424Z,15.07
2023-04-27T11:34:53.769Z,15.03
2023-04-27T11:37:25.927Z,15.04
2023-04-27T11:39:57.623Z,14.99
2023-04-27T11:42:28.327Z,14.92
2023-04-27T11:44:55.542Z,14.88
2023-04-27T11:47:23.107Z,14.82
2023-04-27T11:49:52.584Z,14.73
2023-04-27T11:52:19.413Z,14.52
2023-04-27T11:54:56.368Z,14.52
2023-04-27T11:57:30.009Z,14.41
2023-04-27T12:00:00.230Z,14.40
2023-04-27T12:02:29.270Z,14.38
2023-04-27T12:04:56.448Z,14.10
2023-04-27T12:07:23.571Z,14.03
2023-04-27T12:09:50.237Z,14.14
2023-04-27T12:12:18.430Z,13.97
2023-04-27T12:14:46.115Z,14.00
2023-04-27T12:17:13.238Z,14.14
2023-04-27T12:19:40.168Z,14.28
2023-04-27T12:22:07.164Z,14.46
2023-04-27T12:24:34.112Z,14.24
2023-04-27T12:27:01.435Z,14.39
2023-04-27T12:29:28.218Z,14.54
2023-04-27T12:31:55.779Z,14.71
2023-04-27T12:34:22.579Z,14.77
2023-04-27T12:36:49.409Z,14.81
2023-04-27T12:39:21.927Z,14.84
2023-04-27T12:41:49.804Z,14.77
2023-04-27T12:44:18.610Z,14.75
2023-04-27T12:46:46.390Z,14.65
2023-04-27T12:49:13.335Z,14.56
2023-04-27T12:51:40.334Z,14.70
2023-04-27T12:54:09.030Z,14.72
2023-04-27T12:56:35.938Z,14.75
2023-04-27T12:59:02.659Z,14.82
2023-04-27T13:01:31.245Z,14.59
2023-04-27T13:04:02.602Z,14.73
2023-04-27T13:06:31.348Z,14.65
2023-04-27T13:08:58.892Z,14.74
2023-04-27T13:11:26.536Z,14.71
2023-04-27T13:13:55.036Z,14.75
2023-04-27T13:16:25.216Z,14.74
2023-04-27T13:18:53.330Z,14.55
2023-04-27T13:21:20.484Z,14.46
2023-04-27T13:23:48.026Z,14.44
2023-04-27T13:26:15.802Z,14.53
2023-04-27T13:28:43.060Z,14.76
2023-04-27T13:31:11.033Z,14.56
2023-04-27T13:33:42.632Z,14.47
2023-04-27T13:36:10.843Z,14.34
2023-04-27T13:38:37.570Z,14.29
2023-04-27T13:41:05.021Z,14.38
2023-04-27T13:43:31.877Z,14.53
2023-04-27T13:46:01.077Z,14.48
2023-04-27T13:48:28.838Z,14.44
2023-04-27T13:50:55.917Z,14.41
2023-04-27T13:53:26.156Z,14.44
2023-04-27T13:55:57.140Z,14.52
2023-04-27T13:58:25.988Z,14.47
2023-04-27T14:00:53.815Z,14.55
2023-04-27T14:03:21.633Z,14.61
2023-04-27T14:05:50.921Z,14.65
2023-04-27T14:11:00.701Z,14.84
2023-04-27T14:13:27.483Z,14.72
2023-04-27T14:15:54.438Z,14.77
2023-04-27T14:18:27.381Z,14.73
2023-04-27T14:20:58.762Z,14.69
2023-04-27T14:23:25.513Z,14.61
2023-04-27T14:25:52.209Z,14.56
2023-04-27T14:28:18.916Z,14.44
2023-04-27T14:30:45.694Z,14.40
2023-04-27T14:33:12.480Z,14.38
2023-04-27T14:35:39.234Z,14.34
2023-04-27T14:38:06.245Z,14.39
2023-04-27T14:40:33.132Z,14.40
2023-04-27T14:43:00.119Z,14.43
2023-04-27T14:45:33.533Z,14.32
2023-04-27T14:48:06.952Z,14.40
2023-04-27T14:50:33.792Z,14.45
2023-04-27T14:53:00.672Z,14.36
2023-04-27T14:55:27.703Z,14.24
2023-04-27T14:57:54.482Z,14.22
2023-04-27T15:00:23.770Z,14.18
2023-04-27T15:02:54.941Z,14.07
2023-04-27T15:05:21.853Z,14.09
2023-04-27T15:07:49.893Z,14.06
2023-04-27T15:10:16.763Z,14.07
2023-04-27T15:12:43.565Z,14.01
2023-04-27T15:15:13.664Z,14.05
2023-04-27T15:17:40.443Z,14.24
2023-04-27T15:20:08.114Z,14.36
2023-04-27T15:22:34.856Z,14.36
2023-04-27T15:25:01.593Z,14.46
2023-04-27T15:27:28.304Z,14.32
2023-04-27T15:29:55.338Z,14.22
2023-04-27T15:32:29.863Z,14.29
2023-04-27T15:35:00.145Z,14.21
2023-04-27T15:37:28.534Z,14.15
2023-04-27T15:39:56.109Z,14.09
2023-04-27T15:42:23.709Z,14.02
2023-04-27T15:44:50.967Z,13.99
2023-04-27T15:47:17.666Z,14.02
2023-04-27T15:49:56.220Z,14.01
2023-04-27T15:52:24.358Z,14.01
2023-04-27T15:54:51.116Z,13.91
2023-04-27T15:57:18.451Z,13.85
2023-04-27T15:59:45.187Z,13.79
2023-04-27T16:02:13.189Z,13.82
2023-04-27T16:04:39.946Z,13.80
2023-04-27T16:07:07.460Z,13.82
2023-04-27T16:09:34.431Z,13.84
2023-04-27T16:12:01.974Z,13.77
2023-04-27T16:14:28.699Z,13.73
2023-04-27T16:17:00.582Z,13.72
2023-04-27T16:19:27.437Z,13.74
2023-04-27T16:21:54.493Z,13.71
2023-04-27T16:24:21.849Z,13.66
2023-04-27T16:26:48.553Z,13.64
2023-04-27T16:29:15.490Z,13.58
2023-04-27T16:31:43.075Z,13.63
2023-04-27T16:34:09.902Z,13.59
2023-04-27T16:36:36.669Z,13.54
2023-04-27T16:39:05.140Z,13.50
2023-04-27T16:41:32.027Z,13.48
2023-04-27T16:43:59.098Z,13.52
2023-04-27T16:46:26.018Z,13.53
2023-04-27T16:48:52.821Z,13.54
2023-04-27T16:51:19.745Z,13.42
2023-04-27T16:53:46.681Z,13.45
2023-04-27T16:56:14.246Z,13.34
2023-04-27T16:58:41.135Z,13.31
2023-04-27T17:01:08.035Z,13.28
2023-04-27T17:03:36.164Z,13.13
2023-04-27T17:06:03.285Z,13.14
2023-04-27T17:08:30.094Z,13.04
2023-04-27T17:10:56.857Z,13.06
2023-04-27T17:13:23.733Z,13.03
2023-04-27T17:15:51.787Z,13.03
2023-04-27T17:18:18.583Z,12.94
2023-04-27T17:20:45.313Z,12.82
2023-04-27T17:23:12.025Z,12.79
2023-04-27T17:25:38.780Z,12.72
2023-04-27T17:28:05.512Z,12.71
2023-04-27T17:30:32.251Z,12.67
2023-04-27T17:32:58.980Z,12.58
2023-04-27T17:35:26.748Z,12.44
2023-04-27T17:37:53.597Z,12.45
2023-04-27T17:40:21.078Z,12.43
2023-04-27T17:42:48.052Z,12.38
2023-04-27T17:45:15.732Z,12.32
2023-04-27T17:47:42.782Z,12.28
2023-04-27T17:50:09.895Z,12.23
2023-04-27T17:52:36.750Z,12.18
2023-04-27T17:55:03.684Z,12.11
2023-04-27T17:57:30.402Z,12.04
2023-04-27T17:59:57.205Z,11.89
2023-04-27T18:02:23.972Z,11.91
2023-04-27T18:04:50.875Z,11.82
2023-04-27T18:07:19.314Z,11.73
2023-04-27T18:09:46.085Z,11.74
2023-04-27T18:12:12.795Z,11.66
2023-04-27T18:14:39.840Z,11.57
2023-04-27T18:17:06.643Z,11.52
2023-04-27T18:19:33.436Z,11.45
2023-04-27T18:22:00.131Z,11.36
2023-04-27T18:24:26.843Z,11.29
2023-04-27T18:26:53.614Z,11.21
2023-04-27T18:29:20.625Z,11.17
2023-04-27T18:31:47.616Z,11.10
2023-04-27T18:34:14.463Z,11.03
2023-04-27T18:36:41.251Z,10.89
2023-04-27T18:39:08.006Z,10.86
2023-04-27T18:41:34.766Z,10.83
2023-04-27T18:44:05.873Z,10.77
2023-04-27T18:46:33.016Z,10.71
2023-04-27T18:49:00.982Z,10.67
2023-04-27T18:51:29.165Z,10.65
2023-04-27T18:53:56.416Z,10.63
2023-04-27T18:56:23.425Z,10.59
2023-04-27T18:58:50.246Z,10.58
2023-04-27T19:01:25.416Z,10.58
2023-04-27T19:03:53.503Z,10.58
2023-04-27T19:06:21.209Z,10.52
2023-04-27T19:08:48.435Z,10.57
2023-04-27T19:11:15.253Z,10.54
2023-04-27T19:13:44.031Z,10.59
2023-04-27T19:16:11.873Z,10.59
2023-04-27T19:18:40.453Z,10.63
2023-04-27T19:21:09.912Z,10.66
2023-04-27T19:23:36.971Z,10.67
2023-04-27T19:26:12.515Z,10.70
2023-04-27T19:28:40.680Z,10.72
2023-04-27T19:31:07.781Z,10.75
2023-04-27T19:33:34.622Z,10.77
2023-04-27T19:36:01.312Z,10.81
2023-04-27T19:38:28.042Z,10.83
2023-04-27T19:40:54.772Z,10.85
2023-04-27T19:43:21.618Z,10.90
2023-04-27T19:45:51.647Z,10.94
2023-04-27T19:48:18.506Z,10.93
2023-04-27T19:50:45.458Z,11.04
2023-04-27T19:53:12.616Z,11.09
2023-04-27T19:55:40.506Z,11.11
2023-04-27T19:58:07.391Z,11.16
2023-04-27T20:00:34.366Z,11.18
2023-04-27T20:03:01.380Z,11.18
2023-04-27T20:05:28.551Z,11.16
2023-04-27T20:07:55.477Z,11.13
2023-04-27T20:10:22.292Z,11.11
2023-04-27T20:12:56.494Z,11.08
2023-04-27T20:15:24.964Z,11.13
2023-04-27T20:17:52.991Z,11.15
2023-04-27T20:20:22.706Z,11.22
2023-04-27T20:22:49.596Z,11.22
2023-04-27T20:25:16.404Z,11.21
2023-04-27T20:27:43.198Z,11.19
2023-04-27T20:30:10.322Z,11.17
2023-04-27T20:32:39.473Z,11.13
2023-04-27T20:35:11.540Z,11.05
2023-04-27T20:37:39.913Z,10.92
2023-04-27T20:40:08.014Z,10.98
2023-04-27T20:42:36.041Z,10.96
2023-04-27T20:45:05.516Z,10.92
2023-04-27T20:47:32.281Z,11.00
2023-04-27T20:49:59.058Z,11.04
2023-04-27T20:52:27.972Z,11.09
2023-04-27T20:54:57.459Z,11.08
2023-04-27T20:57:24.209Z,11.14
2023-04-27T20:59:51.093Z,11.15
2023-04-27T21:02:17.835Z,11.10
2023-04-27T21:04:44.577Z,11.06
2023-04-27T21:07:11.382Z,11.11
2023-04-27T21:09:39.029Z,11.13
2023-04-27T21:12:06.589Z,11.19
2023-04-27T21:14:33.850Z,11.16
2023-04-27T21:17:00.917Z,11.02
2023-04-27T21:19:27.738Z,11.09
2023-04-27T21:21:54.404Z,11.08
2023-04-27T21:24:21.331Z,11.08
2023-04-27T21:26:48.547Z,11.04
2023-04-27T21:29:15.253Z,11.04
2023-04-27T21:31:42.039Z,10.97
2023-04-27T21:34:08.989Z,11.03
2023-04-27T21:36:35.744Z,11.08
2023-04-27T21:39:02.516Z,11.07
2023-04-27T21:41:29.285Z,11.08
2023-04-27T21:43:56.799Z,11.10
2023-04-27T21:46:24.140Z,11.14
2023-04-27T21:48:51.139Z,11.17
2023-04-27T21:51:18.147Z,11.10
2023-04-27T21:53:44.855Z,11.06
2023-04-27T21:56:11.795Z,11.05
2023-04-27T21:58:38.563Z,11.07
2023-04-27T22:01:05.267Z,11.10
2023-04-27T22:03:32.771Z,11.14
2023-04-27T22:05:59.670Z,11.10
2023-04-27T22:08:26.567Z,11.10
2023-04-27T22:10:53.334Z,11.04
2023-04-27T22:13:20.386Z,11.02
2023-04-27T22:15:48.282Z,11.08
2023-04-27T22:18:15.664Z,11.06
2023-04-27T22:20:42.934Z,11.01
2023-04-27T22:23:10.012Z,11.01
2023-04-27T22:25:37.057Z,10.98
2023-04-27T22:28:04.148Z,10.97
2023-04-27T22:30:31.291Z,10.99
2023-04-27T22:32:58.183Z,11.07
2023-04-27T22:35:27.693Z,10.96
2023-04-27T22:37:59.139Z,10.94
2023-04-27T22:40:26.546Z,10.96
2023-04-27T22:42:55.164Z,10.95
2023-04-27T22:45:22.857Z,10.92
2023-04-27T22:47:49.755Z,10.91
2023-04-27T22:50:16.794Z,10.91
2023-04-27T22:52:43.724Z,10.91
2023-04-27T22:55:12.065Z,10.92
2023-04-27T22:57:39.872Z,10.92
2023-04-27T23:00:11.134Z,10.92
2023-04-27T23:02:39.589Z,10.90
2023-04-27T23:05:11.038Z,10.94
2023-04-27T23:07:40.961Z,10.97
2023-04-27T23:10:08.175Z,10.96
2023-04-27T23:12:35.204Z,10.95
2023-04-27T23:15:01.985Z,10.92
2023-04-27T23:17:31.748Z,10.89
2023-04-27T23:19:59.193Z,10.88
2023-04-27T23:22:26.746Z,10.88
2023-04-27T23:24:54.031Z,10.83
2023-04-27T23:27:21.506Z,10.81
2023-04-27T23:29:48.257Z,10.76
2023-04-27T23:32:15.528Z,10.70
2023-04-27T23:34:42.242Z,10.61
2023-04-27T23:37:09.055Z,10.58
2023-04-27T23:39:35.837Z,10.49
2023-04-27T23:42:03.384Z,10.46
2023-04-27T23:44:30.493Z,10.35
2023-04-27T23:46:57.493Z,10.28
2023-04-27T23:49:24.269Z,10.29
2023-04-27T23:51:52.641Z,10.32
2023-04-27T23:54:19.523Z,10.33
2023-04-27T23:56:46.346Z,10.35
2023-04-27T23:59:14.998Z,10.33
